sensor_id;sensor_type;location;lat;lon;timestamp;P1;durP1;ratioP1;P2;durP2;ratioP2
5939;SDS011;2995;-31.998;115.906;2023-04-03T00:02:04;2.67;;;1.83;;
5939;SDS011;2995;-31.998;115.906;2023-04-03T00:04:38;1.60;;;1.30;;
5939;SDS011;2995;-31.998;115.906;2023-04-03T00:07:10;4.43;;;2.00;;
5939;SDS011;2995;-31.998;115.906;2023-04-03T00:09:41;3.17;;;1.53;;
5939;SDS011;2995;-31.998;115.906;2023-04-03T00:12:16;5.80;;;1.47;;
5939;SDS011;2995;-31.998;115.906;2023-04-03T00:14:47;2.13;;;1.33;;
5939;SDS011;2995;-31.998;115.906;2023-04-03T00:17:18;2.17;;;1.43;;
5939;SDS011;2995;-31.998;115.906;2023-04-03T00:19:51;2.50;;;1.47;;
5939;SDS011;2995;-31.998;115.906;2023-04-03T00:22:23;2.53;;;1.50;;
5939;SDS011;2995;-31.998;115.906;2023-04-03T00:24:55;1.70;;;1.60;;
5939;SDS011;2995;-31.998;115.906;2023-04-03T00:27:26;4.67;;;1.67;;
5939;SDS011;2995;-31.998;115.906;2023-04-03T00:29:57;3.07;;;1.60;;
5939;SDS011;2995;-31.998;115.906;2023-04-03T00:32:28;3.30;;;1.77;;
5939;SDS011;2995;-31.998;115.906;2023-04-03T00:35:02;2.50;;;1.50;;
5939;SDS011;2995;-31.998;115.906;2023-04-03T00:37:34;4.00;;;1.50;;
5939;SDS011;2995;-31.998;115.906;2023-04-03T00:40:05;3.80;;;1.50;;
5939;SDS011;2995;-31.998;115.906;2023-04-03T00:42:38;4.73;;;1.40;;
5939;SDS011;2995;-31.998;115.906;2023-04-03T00:45:24;2.87;;;1.70;;
5939;SDS011;2995;-31.998;115.906;2023-04-03T00:47:58;1.77;;;1.33;;
5939;SDS011;2995;-31.998;115.906;2023-04-03T00:50:35;1.87;;;1.67;;
5939;SDS011;2995;-31.998;115.906;2023-04-03T00:53:08;1.90;;;1.47;;
5939;SDS011;2995;-31.998;115.906;2023-04-03T00:55:44;2.40;;;1.40;;
5939;SDS011;2995;-31.998;115.906;2023-04-03T00:58:18;2.13;;;1.30;;
5939;SDS011;2995;-31.998;115.906;2023-04-03T01:00:53;2.43;;;1.50;;
5939;SDS011;2995;-31.998;115.906;2023-04-03T01:03:27;4.27;;;1.60;;
5939;SDS011;2995;-31.998;115.906;2023-04-03T01:06:00;3.30;;;1.60;;
5939;SDS011;2995;-31.998;115.906;2023-04-03T01:08:32;3.73;;;1.67;;
5939;SDS011;2995;-31.998;115.906;2023-04-03T01:11:04;1.50;;;1.37;;
5939;SDS011;2995;-31.998;115.906;2023-04-03T01:13:35;1.83;;;1.30;;
5939;SDS011;2995;-31.998;115.906;2023-04-03T01:16:07;4.00;;;1.60;;
5939;SDS011;2995;-31.998;115.906;2023-04-03T01:18:38;3.97;;;1.60;;
5939;SDS011;2995;-31.998;115.906;2023-04-03T01:24:24;2.80;;;1.57;;
5939;SDS011;2995;-31.998;115.906;2023-04-03T01:27:02;1.73;;;1.50;;
5939;SDS011;2995;-31.998;115.906;2023-04-03T01:29:37;2.97;;;1.47;;
5939;SDS011;2995;-31.998;115.906;2023-04-03T01:32:11;2.70;;;1.40;;
5939;SDS011;2995;-31.998;115.906;2023-04-03T01:34:43;2.40;;;1.50;;
5939;SDS011;2995;-31.998;115.906;2023-04-03T01:37:14;3.27;;;1.70;;
5939;SDS011;2995;-31.998;115.906;2023-04-03T01:39:46;2.50;;;1.20;;
5939;SDS011;2995;-31.998;115.906;2023-04-03T01:42:17;1.93;;;1.20;;
5939;SDS011;2995;-31.998;115.906;2023-04-03T01:44:48;5.03;;;1.53;;
5939;SDS011;2995;-31.998;115.906;2023-04-03T01:47:21;2.17;;;1.10;;
5939;SDS011;2995;-31.998;115.906;2023-04-03T01:49:53;1.43;;;1.30;;
5939;SDS011;2995;-31.998;115.906;2023-04-03T01:52:24;4.40;;;1.40;;
5939;SDS011;2995;-31.998;115.906;2023-04-03T01:54:55;3.50;;;2.13;;
5939;SDS011;2995;-31.998;115.906;2023-04-03T01:57:26;2.23;;;1.30;;
5939;SDS011;2995;-31.998;115.906;2023-04-03T01:59:58;2.47;;;1.23;;
5939;SDS011;2995;-31.998;115.906;2023-04-03T02:02:31;3.10;;;1.40;;
5939;SDS011;2995;-31.998;115.906;2023-04-03T02:05:02;3.20;;;1.43;;
5939;SDS011;2995;-31.998;115.906;2023-04-03T02:07:34;2.10;;;1.40;;
5939;SDS011;2995;-31.998;115.906;2023-04-03T02:10:05;8.13;;;1.57;;
5939;SDS011;2995;-31.998;115.906;2023-04-03T02:12:37;3.83;;;1.40;;
5939;SDS011;2995;-31.998;115.906;2023-04-03T02:15:09;3.13;;;1.30;;
5939;SDS011;2995;-31.998;115.906;2023-04-03T02:17:42;1.50;;;1.20;;
5939;SDS011;2995;-31.998;115.906;2023-04-03T02:20:14;2.17;;;1.20;;
5939;SDS011;2995;-31.998;115.906;2023-04-03T02:22:45;2.50;;;1.20;;
5939;SDS011;2995;-31.998;115.906;2023-04-03T02:25:16;3.40;;;1.40;;
5939;SDS011;2995;-31.998;115.906;2023-04-03T02:27:47;2.00;;;1.40;;
5939;SDS011;2995;-31.998;115.906;2023-04-03T02:30:19;3.00;;;1.27;;
5939;SDS011;2995;-31.998;115.906;2023-04-03T02:32:52;2.50;;;1.33;;
5939;SDS011;2995;-31.998;115.906;2023-04-03T02:35:23;1.30;;;1.20;;
5939;SDS011;2995;-31.998;115.906;2023-04-03T02:37:55;2.60;;;1.30;;
5939;SDS011;2995;-31.998;115.906;2023-04-03T02:40:26;3.47;;;1.57;;
5939;SDS011;2995;-31.998;115.906;2023-04-03T02:42:57;5.47;;;1.30;;
5939;SDS011;2995;-31.998;115.906;2023-04-03T02:45:28;2.27;;;1.57;;
5939;SDS011;2995;-31.998;115.906;2023-04-03T02:48:02;1.20;;;1.10;;
5939;SDS011;2995;-31.998;115.906;2023-04-03T02:50:34;2.20;;;1.47;;
5939;SDS011;2995;-31.998;115.906;2023-04-03T02:53:05;2.00;;;1.50;;
5939;SDS011;2995;-31.998;115.906;2023-04-03T02:55:36;1.50;;;1.23;;
5939;SDS011;2995;-31.998;115.906;2023-04-03T02:58:08;4.27;;;1.43;;
5939;SDS011;2995;-31.998;115.906;2023-04-03T03:00:39;3.03;;;1.30;;
5939;SDS011;2995;-31.998;115.906;2023-04-03T03:03:12;2.80;;;1.20;;
5939;SDS011;2995;-31.998;115.906;2023-04-03T03:05:43;1.50;;;1.20;;
5939;SDS011;2995;-31.998;115.906;2023-04-03T03:08:15;2.83;;;1.50;;
5939;SDS011;2995;-31.998;115.906;2023-04-03T03:10:46;2.30;;;1.10;;
5939;SDS011;2995;-31.998;115.906;2023-04-03T03:13:17;4.63;;;1.40;;
5939;SDS011;2995;-31.998;115.906;2023-04-03T03:15:49;2.70;;;1.20;;
5939;SDS011;2995;-31.998;115.906;2023-04-03T03:18:22;3.50;;;1.33;;
5939;SDS011;2995;-31.998;115.906;2023-04-03T03:20:53;2.80;;;1.00;;
5939;SDS011;2995;-31.998;115.906;2023-04-03T03:23:26;3.20;;;1.20;;
5939;SDS011;2995;-31.998;115.906;2023-04-03T03:25:59;2.70;;;1.30;;
5939;SDS011;2995;-31.998;115.906;2023-04-03T03:28:32;2.83;;;1.30;;
5939;SDS011;2995;-31.998;115.906;2023-04-03T03:31:04;1.53;;;0.90;;
5939;SDS011;2995;-31.998;115.906;2023-04-03T03:33:37;2.40;;;1.23;;
5939;SDS011;2995;-31.998;115.906;2023-04-03T03:36:08;4.93;;;1.10;;
5939;SDS011;2995;-31.998;115.906;2023-04-03T03:38:40;1.10;;;1.00;;
5939;SDS011;2995;-31.998;115.906;2023-04-03T03:41:11;1.77;;;1.10;;
5939;SDS011;2995;-31.998;115.906;2023-04-03T03:43:42;1.60;;;1.00;;
5939;SDS011;2995;-31.998;115.906;2023-04-03T03:46:14;1.93;;;1.10;;
5939;SDS011;2995;-31.998;115.906;2023-04-03T03:48:47;2.07;;;1.10;;
5939;SDS011;2995;-31.998;115.906;2023-04-03T03:51:18;1.83;;;1.00;;
5939;SDS011;2995;-31.998;115.906;2023-04-03T03:53:49;1.50;;;1.10;;
5939;SDS011;2995;-31.998;115.906;2023-04-03T03:56:20;2.20;;;1.20;;
5939;SDS011;2995;-31.998;115.906;2023-04-03T03:58:52;1.90;;;0.97;;
5939;SDS011;2995;-31.998;115.906;2023-04-03T04:01:24;2.13;;;1.40;;
5939;SDS011;2995;-31.998;115.906;2023-04-03T04:03:58;1.93;;;1.10;;
5939;SDS011;2995;-31.998;115.906;2023-04-03T04:06:29;1.40;;;1.20;;
5939;SDS011;2995;-31.998;115.906;2023-04-03T04:09:00;1.60;;;1.30;;
5939;SDS011;2995;-31.998;115.906;2023-04-03T04:11:31;1.80;;;1.07;;
5939;SDS011;2995;-31.998;115.906;2023-04-03T04:14:02;4.93;;;1.37;;
5939;SDS011;2995;-31.998;115.906;2023-04-03T04:16:34;1.70;;;1.17;;
5939;SDS011;2995;-31.998;115.906;2023-04-03T04:19:07;2.83;;;1.30;;
5939;SDS011;2995;-31.998;115.906;2023-04-03T04:21:38;3.50;;;1.30;;
5939;SDS011;2995;-31.998;115.906;2023-04-03T04:24:09;2.37;;;1.13;;
5939;SDS011;2995;-31.998;115.906;2023-04-03T04:26:41;1.47;;;1.10;;
5939;SDS011;2995;-31.998;115.906;2023-04-03T04:29:12;2.80;;;1.30;;
5939;SDS011;2995;-31.998;115.906;2023-04-03T04:31:43;1.93;;;1.17;;
5939;SDS011;2995;-31.998;115.906;2023-04-03T04:34:17;1.17;;;1.00;;
5939;SDS011;2995;-31.998;115.906;2023-04-03T04:36:48;3.10;;;1.30;;
5939;SDS011;2995;-31.998;115.906;2023-04-03T04:39:19;1.73;;;1.00;;
5939;SDS011;2995;-31.998;115.906;2023-04-03T04:41:51;2.10;;;1.00;;
5939;SDS011;2995;-31.998;115.906;2023-04-03T04:44:22;1.83;;;1.00;;
5939;SDS011;2995;-31.998;115.906;2023-04-03T04:46:53;2.00;;;1.00;;
5939;SDS011;2995;-31.998;115.906;2023-04-03T04:49:26;1.57;;;1.10;;
5939;SDS011;2995;-31.998;115.906;2023-04-03T04:51:58;1.70;;;1.03;;
5939;SDS011;2995;-31.998;115.906;2023-04-03T04:54:29;2.53;;;1.20;;
5939;SDS011;2995;-31.998;115.906;2023-04-03T04:57:00;3.60;;;1.30;;
5939;SDS011;2995;-31.998;115.906;2023-04-03T04:59:31;2.07;;;1.20;;
5939;SDS011;2995;-31.998;115.906;2023-04-03T05:02:02;2.63;;;1.30;;
5939;SDS011;2995;-31.998;115.906;2023-04-03T05:04:36;2.27;;;1.03;;
5939;SDS011;2995;-31.998;115.906;2023-04-03T05:07:07;2.70;;;1.30;;
5939;SDS011;2995;-31.998;115.906;2023-04-03T05:09:38;2.10;;;1.20;;
5939;SDS011;2995;-31.998;115.906;2023-04-03T05:12:09;2.30;;;1.37;;
5939;SDS011;2995;-31.998;115.906;2023-04-03T05:14:40;1.67;;;1.30;;
5939;SDS011;2995;-31.998;115.906;2023-04-03T05:17:11;2.70;;;1.20;;
5939;SDS011;2995;-31.998;115.906;2023-04-03T05:19:45;1.63;;;1.20;;
5939;SDS011;2995;-31.998;115.906;2023-04-03T05:22:16;2.37;;;1.30;;
5939;SDS011;2995;-31.998;115.906;2023-04-03T05:24:48;4.60;;;1.30;;
5939;SDS011;2995;-31.998;115.906;2023-04-03T05:27:19;1.70;;;1.20;;
5939;SDS011;2995;-31.998;115.906;2023-04-03T05:29:52;1.67;;;1.37;;
5939;SDS011;2995;-31.998;115.906;2023-04-03T05:32:24;2.07;;;1.30;;
5939;SDS011;2995;-31.998;115.906;2023-04-03T05:34:57;2.00;;;1.20;;
5939;SDS011;2995;-31.998;115.906;2023-04-03T05:37:29;9.10;;;1.33;;
5939;SDS011;2995;-31.998;115.906;2023-04-03T05:40:00;3.67;;;1.30;;
5939;SDS011;2995;-31.998;115.906;2023-04-03T05:42:31;2.70;;;1.20;;
5939;SDS011;2995;-31.998;115.906;2023-04-03T05:45:03;8.00;;;1.40;;
5939;SDS011;2995;-31.998;115.906;2023-04-03T05:47:34;1.40;;;1.10;;
5939;SDS011;2995;-31.998;115.906;2023-04-03T05:50:08;2.83;;;1.50;;
5939;SDS011;2995;-31.998;115.906;2023-04-03T05:52:40;1.97;;;1.30;;
5939;SDS011;2995;-31.998;115.906;2023-04-03T05:55:14;2.87;;;1.10;;
5939;SDS011;2995;-31.998;115.906;2023-04-03T05:57:46;2.30;;;1.20;;
5939;SDS011;2995;-31.998;115.906;2023-04-03T06:00:17;2.30;;;1.30;;
5939;SDS011;2995;-31.998;115.906;2023-04-03T06:02:49;2.17;;;1.07;;
5939;SDS011;2995;-31.998;115.906;2023-04-03T06:05:23;1.80;;;1.17;;
5939;SDS011;2995;-31.998;115.906;2023-04-03T06:07:54;2.83;;;1.10;;
5939;SDS011;2995;-31.998;115.906;2023-04-03T06:10:25;1.80;;;1.20;;
5939;SDS011;2995;-31.998;115.906;2023-04-03T06:12:57;2.10;;;1.30;;
5939;SDS011;2995;-31.998;115.906;2023-04-03T06:15:28;2.10;;;1.17;;
5939;SDS011;2995;-31.998;115.906;2023-04-03T06:18:00;2.50;;;1.20;;
5939;SDS011;2995;-31.998;115.906;2023-04-03T06:20:33;3.67;;;1.23;;
5939;SDS011;2995;-31.998;115.906;2023-04-03T06:23:04;2.80;;;1.57;;
5939;SDS011;2995;-31.998;115.906;2023-04-03T06:25:35;2.33;;;1.40;;
5939;SDS011;2995;-31.998;115.906;2023-04-03T06:28:07;1.20;;;1.00;;
5939;SDS011;2995;-31.998;115.906;2023-04-03T06:30:39;1.40;;;1.30;;
5939;SDS011;2995;-31.998;115.906;2023-04-03T06:33:10;2.40;;;1.33;;
5939;SDS011;2995;-31.998;115.906;2023-04-03T06:35:43;2.40;;;1.40;;
5939;SDS011;2995;-31.998;115.906;2023-04-03T06:38:14;2.00;;;1.30;;
5939;SDS011;2995;-31.998;115.906;2023-04-03T06:40:46;1.73;;;1.13;;
5939;SDS011;2995;-31.998;115.906;2023-04-03T06:43:17;1.83;;;1.27;;
5939;SDS011;2995;-31.998;115.906;2023-04-03T06:45:49;1.47;;;1.23;;
5939;SDS011;2995;-31.998;115.906;2023-04-03T06:48:20;3.33;;;1.30;;
5939;SDS011;2995;-31.998;115.906;2023-04-03T06:50:53;2.53;;;1.67;;
5939;SDS011;2995;-31.998;115.906;2023-04-03T06:53:25;5.47;;;1.40;;
5939;SDS011;2995;-31.998;115.906;2023-04-03T06:55:56;4.13;;;1.57;;
5939;SDS011;2995;-31.998;115.906;2023-04-03T06:58:27;2.13;;;1.40;;
5939;SDS011;2995;-31.998;115.906;2023-04-03T07:00:58;4.80;;;1.30;;
5939;SDS011;2995;-31.998;115.906;2023-04-03T07:03:29;2.40;;;1.23;;
5939;SDS011;2995;-31.998;115.906;2023-04-03T07:06:03;1.30;;;1.20;;
5939;SDS011;2995;-31.998;115.906;2023-04-03T07:08:35;1.30;;;1.20;;
5939;SDS011;2995;-31.998;115.906;2023-04-03T07:11:06;1.73;;;1.37;;
5939;SDS011;2995;-31.998;115.906;2023-04-03T07:13:38;2.63;;;1.20;;
5939;SDS011;2995;-31.998;115.906;2023-04-03T07:16:09;2.57;;;1.50;;
5939;SDS011;2995;-31.998;115.906;2023-04-03T07:18:41;7.03;;;1.50;;
5939;SDS011;2995;-31.998;115.906;2023-04-03T07:21:14;2.70;;;1.60;;
5939;SDS011;2995;-31.998;115.906;2023-04-03T07:23:45;2.00;;;1.20;;
5939;SDS011;2995;-31.998;115.906;2023-04-03T07:26:16;6.10;;;1.60;;
5939;SDS011;2995;-31.998;115.906;2023-04-03T07:28:48;3.07;;;1.20;;
5939;SDS011;2995;-31.998;115.906;2023-04-03T07:31:20;1.50;;;1.30;;
5939;SDS011;2995;-31.998;115.906;2023-04-03T07:33:51;1.47;;;1.30;;
5939;SDS011;2995;-31.998;115.906;2023-04-03T07:36:24;2.63;;;1.50;;
5939;SDS011;2995;-31.998;115.906;2023-04-03T07:38:56;2.60;;;1.30;;
5939;SDS011;2995;-31.998;115.906;2023-04-03T07:41:27;2.70;;;1.30;;
5939;SDS011;2995;-31.998;115.906;2023-04-03T07:44:00;2.07;;;1.30;;
5939;SDS011;2995;-31.998;115.906;2023-04-03T07:46:31;4.03;;;1.47;;
5939;SDS011;2995;-31.998;115.906;2023-04-03T07:49:02;2.80;;;1.57;;
5939;SDS011;2995;-31.998;115.906;2023-04-03T07:51:36;1.60;;;1.30;;
5939;SDS011;2995;-31.998;115.906;2023-04-03T07:54:07;2.70;;;1.50;;
5939;SDS011;2995;-31.998;115.906;2023-04-03T07:56:38;3.03;;;1.70;;
5939;SDS011;2995;-31.998;115.906;2023-04-03T07:59:10;2.20;;;1.57;;
5939;SDS011;2995;-31.998;115.906;2023-04-03T08:01:41;3.30;;;1.43;;
5939;SDS011;2995;-31.998;115.906;2023-04-03T08:04:12;3.60;;;1.50;;
5939;SDS011;2995;-31.998;115.906;2023-04-03T08:06:45;2.47;;;1.50;;
5939;SDS011;2995;-31.998;115.906;2023-04-03T08:09:17;4.03;;;1.90;;
5939;SDS011;2995;-31.998;115.906;2023-04-03T08:11:48;2.27;;;1.57;;
5939;SDS011;2995;-31.998;115.906;2023-04-03T08:14:19;2.47;;;1.80;;
5939;SDS011;2995;-31.998;115.906;2023-04-03T08:16:51;2.03;;;1.53;;
5939;SDS011;2995;-31.998;115.906;2023-04-03T08:19:22;2.83;;;1.70;;
5939;SDS011;2995;-31.998;115.906;2023-04-03T08:21:56;2.97;;;1.80;;
5939;SDS011;2995;-31.998;115.906;2023-04-03T08:24:29;3.53;;;1.97;;
5939;SDS011;2995;-31.998;115.906;2023-04-03T08:27:00;2.40;;;1.60;;
5939;SDS011;2995;-31.998;115.906;2023-04-03T08:29:31;3.03;;;2.03;;
5939;SDS011;2995;-31.998;115.906;2023-04-03T08:32:04;3.10;;;2.10;;
5939;SDS011;2995;-31.998;115.906;2023-04-03T08:34:35;3.63;;;2.33;;
5939;SDS011;2995;-31.998;115.906;2023-04-03T08:37:08;4.33;;;2.27;;
5939;SDS011;2995;-31.998;115.906;2023-04-03T08:39:39;6.90;;;2.43;;
5939;SDS011;2995;-31.998;115.906;2023-04-03T08:42:14;5.00;;;1.80;;
5939;SDS011;2995;-31.998;115.906;2023-04-03T08:45:00;3.80;;;1.90;;
5939;SDS011;2995;-31.998;115.906;2023-04-03T08:47:37;3.43;;;1.80;;
5939;SDS011;2995;-31.998;115.906;2023-04-03T08:50:13;2.83;;;1.90;;
5939;SDS011;2995;-31.998;115.906;2023-04-03T08:52:49;3.07;;;1.70;;
5939;SDS011;2995;-31.998;115.906;2023-04-03T08:55:25;2.10;;;1.80;;
5939;SDS011;2995;-31.998;115.906;2023-04-03T08:58:01;2.93;;;1.50;;
5939;SDS011;2995;-31.998;115.906;2023-04-03T09:00:34;3.00;;;1.83;;
5939;SDS011;2995;-31.998;115.906;2023-04-03T09:03:13;4.20;;;1.57;;
5939;SDS011;2995;-31.998;115.906;2023-04-03T09:05:46;5.70;;;2.10;;
5939;SDS011;2995;-31.998;115.906;2023-04-03T09:08:24;2.70;;;1.57;;
5939;SDS011;2995;-31.998;115.906;2023-04-03T09:10:59;3.77;;;1.93;;
5939;SDS011;2995;-31.998;115.906;2023-04-03T09:13:40;5.53;;;2.17;;
5939;SDS011;2995;-31.998;115.906;2023-04-03T09:16:20;4.20;;;2.00;;
5939;SDS011;2995;-31.998;115.906;2023-04-03T09:18:59;4.97;;;2.10;;
5939;SDS011;2995;-31.998;115.906;2023-04-03T09:21:37;6.03;;;1.97;;
5939;SDS011;2995;-31.998;115.906;2023-04-03T09:24:12;4.90;;;2.40;;
5939;SDS011;2995;-31.998;115.906;2023-04-03T09:26:44;2.83;;;1.90;;
5939;SDS011;2995;-31.998;115.906;2023-04-03T09:29:21;3.77;;;2.03;;
5939;SDS011;2995;-31.998;115.906;2023-04-03T09:31:55;2.87;;;2.10;;
5939;SDS011;2995;-31.998;115.906;2023-04-03T09:34:30;3.10;;;1.97;;
5939;SDS011;2995;-31.998;115.906;2023-04-03T09:37:04;4.33;;;1.63;;
5939;SDS011;2995;-31.998;115.906;2023-04-03T09:39:50;4.63;;;2.30;;
5939;SDS011;2995;-31.998;115.906;2023-04-03T09:42:22;4.30;;;1.80;;
5939;SDS011;2995;-31.998;115.906;2023-04-03T09:44:56;6.80;;;2.20;;
5939;SDS011;2995;-31.998;115.906;2023-04-03T09:47:28;3.27;;;1.90;;
5939;SDS011;2995;-31.998;115.906;2023-04-03T09:50:17;6.00;;;2.23;;
5939;SDS011;2995;-31.998;115.906;2023-04-03T09:52:49;6.20;;;1.90;;
5939;SDS011;2995;-31.998;115.906;2023-04-03T09:55:23;3.60;;;1.70;;
5939;SDS011;2995;-31.998;115.906;2023-04-03T09:57:57;2.77;;;1.50;;
5939;SDS011;2995;-31.998;115.906;2023-04-03T10:00:30;7.33;;;1.97;;
5939;SDS011;2995;-31.998;115.906;2023-04-03T10:03:04;3.67;;;2.20;;
5939;SDS011;2995;-31.998;115.906;2023-04-03T10:05:51;4.23;;;1.57;;
5939;SDS011;2995;-31.998;115.906;2023-04-03T10:08:25;2.70;;;1.63;;
5939;SDS011;2995;-31.998;115.906;2023-04-03T10:13:55;6.83;;;1.60;;
5939;SDS011;2995;-31.998;115.906;2023-04-03T10:16:29;5.00;;;1.80;;
5939;SDS011;2995;-31.998;115.906;2023-04-03T10:22:19;4.10;;;1.77;;
5939;SDS011;2995;-31.998;115.906;2023-04-03T10:24:54;9.63;;;2.00;;
5939;SDS011;2995;-31.998;115.906;2023-04-03T10:27:44;6.67;;;1.60;;
5939;SDS011;2995;-31.998;115.906;2023-04-03T10:30:37;5.07;;;1.93;;
5939;SDS011;2995;-31.998;115.906;2023-04-03T10:36:17;6.77;;;2.23;;
5939;SDS011;2995;-31.998;115.906;2023-04-03T10:38:59;6.13;;;2.63;;
5939;SDS011;2995;-31.998;115.906;2023-04-03T10:41:37;6.40;;;2.30;;
5939;SDS011;2995;-31.998;115.906;2023-04-03T10:44:20;6.17;;;1.80;;
5939;SDS011;2995;-31.998;115.906;2023-04-03T10:47:00;7.30;;;2.03;;
5939;SDS011;2995;-31.998;115.906;2023-04-03T10:49:39;7.90;;;2.23;;
5939;SDS011;2995;-31.998;115.906;2023-04-03T10:52:21;8.67;;;2.20;;
5939;SDS011;2995;-31.998;115.906;2023-04-03T10:54:59;10.10;;;2.30;;
5939;SDS011;2995;-31.998;115.906;2023-04-03T10:57:38;5.87;;;1.87;;
5939;SDS011;2995;-31.998;115.906;2023-04-03T11:00:16;5.53;;;2.13;;
5939;SDS011;2995;-31.998;115.906;2023-04-03T11:02:51;8.60;;;2.43;;
5939;SDS011;2995;-31.998;115.906;2023-04-03T11:05:26;7.80;;;2.40;;
5939;SDS011;2995;-31.998;115.906;2023-04-03T11:08:05;6.97;;;2.27;;
5939;SDS011;2995;-31.998;115.906;2023-04-03T11:10:54;6.23;;;2.80;;
5939;SDS011;2995;-31.998;115.906;2023-04-03T11:13:28;7.60;;;2.70;;
5939;SDS011;2995;-31.998;115.906;2023-04-03T11:16:06;7.23;;;3.23;;
5939;SDS011;2995;-31.998;115.906;2023-04-03T11:18:39;6.07;;;2.50;;
5939;SDS011;2995;-31.998;115.906;2023-04-03T11:21:16;7.43;;;2.30;;
5939;SDS011;2995;-31.998;115.906;2023-04-03T11:23:52;5.00;;;1.90;;
5939;SDS011;2995;-31.998;115.906;2023-04-03T11:26:27;6.77;;;2.13;;
5939;SDS011;2995;-31.998;115.906;2023-04-03T11:29:02;7.93;;;1.90;;
5939;SDS011;2995;-31.998;115.906;2023-04-03T11:31:42;6.30;;;1.97;;
5939;SDS011;2995;-31.998;115.906;2023-04-03T11:34:30;7.70;;;2.30;;
5939;SDS011;2995;-31.998;115.906;2023-04-03T11:37:11;6.27;;;2.07;;
5939;SDS011;2995;-31.998;115.906;2023-04-03T11:39:48;8.10;;;1.90;;
5939;SDS011;2995;-31.998;115.906;2023-04-03T11:42:25;11.70;;;2.07;;
5939;SDS011;2995;-31.998;115.906;2023-04-03T11:45:17;6.80;;;2.07;;
5939;SDS011;2995;-31.998;115.906;2023-04-03T11:48:05;5.10;;;1.80;;
5939;SDS011;2995;-31.998;115.906;2023-04-03T11:50:59;8.40;;;1.90;;
5939;SDS011;2995;-31.998;115.906;2023-04-03T11:53:35;3.47;;;1.63;;
5939;SDS011;2995;-31.998;115.906;2023-04-03T12:01:55;9.63;;;2.00;;
5939;SDS011;2995;-31.998;115.906;2023-04-03T12:04:28;8.30;;;2.53;;
5939;SDS011;2995;-31.998;115.906;2023-04-03T12:07:11;5.23;;;1.77;;
5939;SDS011;2995;-31.998;115.906;2023-04-03T12:12:58;4.57;;;1.60;;
5939;SDS011;2995;-31.998;115.906;2023-04-03T12:15:50;6.27;;;1.80;;
5939;SDS011;2995;-31.998;115.906;2023-04-03T12:24:31;7.93;;;2.20;;
5939;SDS011;2995;-31.998;115.906;2023-04-03T12:27:05;10.53;;;1.87;;
5939;SDS011;2995;-31.998;115.906;2023-04-03T12:30:00;4.20;;;1.50;;
5939;SDS011;2995;-31.998;115.906;2023-04-03T12:32:48;4.17;;;1.77;;
5939;SDS011;2995;-31.998;115.906;2023-04-03T12:35:30;3.90;;;1.30;;
5939;SDS011;2995;-31.998;115.906;2023-04-03T12:38:25;6.90;;;1.97;;
5939;SDS011;2995;-31.998;115.906;2023-04-03T12:41:25;4.30;;;1.63;;
5939;SDS011;2995;-31.998;115.906;2023-04-03T12:44:09;5.57;;;1.83;;
5939;SDS011;2995;-31.998;115.906;2023-04-03T12:47:04;8.93;;;1.73;;
5939;SDS011;2995;-31.998;115.906;2023-04-03T12:49:50;4.57;;;1.47;;
5939;SDS011;2995;-31.998;115.906;2023-04-03T12:52:30;4.30;;;1.47;;
5939;SDS011;2995;-31.998;115.906;2023-04-03T12:55:08;7.17;;;1.73;;
5939;SDS011;2995;-31.998;115.906;2023-04-03T12:57:48;3.27;;;1.93;;
5939;SDS011;2995;-31.998;115.906;2023-04-03T13:00:28;7.50;;;1.63;;
5939;SDS011;2995;-31.998;115.906;2023-04-03T13:03:02;9.63;;;1.80;;
5939;SDS011;2995;-31.998;115.906;2023-04-03T13:05:33;5.07;;;1.60;;
5939;SDS011;2995;-31.998;115.906;2023-04-03T13:08:05;5.40;;;1.50;;
5939;SDS011;2995;-31.998;115.906;2023-04-03T13:10:47;5.93;;;1.60;;
5939;SDS011;2995;-31.998;115.906;2023-04-03T13:13:27;10.67;;;1.60;;
5939;SDS011;2995;-31.998;115.906;2023-04-03T13:15:58;5.80;;;2.03;;
5939;SDS011;2995;-31.998;115.906;2023-04-03T13:18:37;6.00;;;1.70;;
5939;SDS011;2995;-31.998;115.906;2023-04-03T13:21:12;4.40;;;1.40;;
5939;SDS011;2995;-31.998;115.906;2023-04-03T13:23:47;3.70;;;1.67;;
5939;SDS011;2995;-31.998;115.906;2023-04-03T13:26:20;7.33;;;1.70;;
5939;SDS011;2995;-31.998;115.906;2023-04-03T13:28:56;7.63;;;1.80;;
5939;SDS011;2995;-31.998;115.906;2023-04-03T13:31:30;9.50;;;2.00;;
5939;SDS011;2995;-31.998;115.906;2023-04-03T13:34:02;4.93;;;1.73;;
5939;SDS011;2995;-31.998;115.906;2023-04-03T13:36:36;6.03;;;1.90;;
5939;SDS011;2995;-31.998;115.906;2023-04-03T13:39:20;7.90;;;2.50;;
5939;SDS011;2995;-31.998;115.906;2023-04-03T13:41:54;5.63;;;1.73;;
5939;SDS011;2995;-31.998;115.906;2023-04-03T13:44:31;6.20;;;1.60;;
5939;SDS011;2995;-31.998;115.906;2023-04-03T13:47:15;7.53;;;1.97;;
5939;SDS011;2995;-31.998;115.906;2023-04-03T13:49:59;6.70;;;1.40;;
5939;SDS011;2995;-31.998;115.906;2023-04-03T13:52:39;6.93;;;2.27;;
5939;SDS011;2995;-31.998;115.906;2023-04-03T13:55:16;6.23;;;1.83;;
5939;SDS011;2995;-31.998;115.906;2023-04-03T13:57:57;5.73;;;1.40;;
5939;SDS011;2995;-31.998;115.906;2023-04-03T14:00:35;7.40;;;1.63;;
5939;SDS011;2995;-31.998;115.906;2023-04-03T14:03:17;7.80;;;1.90;;
5939;SDS011;2995;-31.998;115.906;2023-04-03T14:05:51;6.70;;;1.60;;
5939;SDS011;2995;-31.998;115.906;2023-04-03T14:08:23;3.00;;;1.40;;
5939;SDS011;2995;-31.998;115.906;2023-04-03T14:10:54;4.83;;;1.50;;
5939;SDS011;2995;-31.998;115.906;2023-04-03T14:13:26;5.53;;;1.53;;
5939;SDS011;2995;-31.998;115.906;2023-04-03T14:16:01;5.90;;;1.37;;
5939;SDS011;2995;-31.998;115.906;2023-04-03T14:18:33;5.60;;;1.73;;
5939;SDS011;2995;-31.998;115.906;2023-04-03T14:21:04;5.50;;;1.80;;
5939;SDS011;2995;-31.998;115.906;2023-04-03T14:23:35;11.47;;;2.17;;
5939;SDS011;2995;-31.998;115.906;2023-04-03T14:26:09;7.20;;;1.60;;
5939;SDS011;2995;-31.998;115.906;2023-04-03T14:28:42;3.00;;;1.40;;
5939;SDS011;2995;-31.998;115.906;2023-04-03T14:31:16;3.97;;;1.40;;
5939;SDS011;2995;-31.998;115.906;2023-04-03T14:33:48;4.90;;;1.50;;
5939;SDS011;2995;-31.998;115.906;2023-04-03T14:36:20;5.83;;;1.50;;
5939;SDS011;2995;-31.998;115.906;2023-04-03T14:38:54;3.20;;;1.00;;
5939;SDS011;2995;-31.998;115.906;2023-04-03T14:41:27;6.33;;;1.30;;
5939;SDS011;2995;-31.998;115.906;2023-04-03T14:43:58;3.50;;;1.33;;
5939;SDS011;2995;-31.998;115.906;2023-04-03T14:46:32;2.80;;;1.13;;
5939;SDS011;2995;-31.998;115.906;2023-04-03T14:49:08;4.07;;;1.30;;
5939;SDS011;2995;-31.998;115.906;2023-04-03T14:51:44;6.67;;;1.40;;
5939;SDS011;2995;-31.998;115.906;2023-04-03T14:54:17;3.53;;;1.30;;
5939;SDS011;2995;-31.998;115.906;2023-04-03T14:56:52;5.33;;;1.80;;
5939;SDS011;2995;-31.998;115.906;2023-04-03T14:59:30;4.97;;;1.27;;
5939;SDS011;2995;-31.998;115.906;2023-04-03T15:02:07;3.60;;;1.77;;
5939;SDS011;2995;-31.998;115.906;2023-04-03T15:04:53;2.90;;;1.40;;
5939;SDS011;2995;-31.998;115.906;2023-04-03T15:07:25;2.40;;;1.30;;
5939;SDS011;2995;-31.998;115.906;2023-04-03T15:09:58;2.73;;;1.30;;
5939;SDS011;2995;-31.998;115.906;2023-04-03T15:12:31;6.10;;;1.73;;
5939;SDS011;2995;-31.998;115.906;2023-04-03T15:15:02;5.03;;;1.40;;
5939;SDS011;2995;-31.998;115.906;2023-04-03T15:17:36;2.80;;;1.30;;
5939;SDS011;2995;-31.998;115.906;2023-04-03T15:20:11;1.30;;;1.10;;
5939;SDS011;2995;-31.998;115.906;2023-04-03T15:22:43;2.67;;;1.63;;
5939;SDS011;2995;-31.998;115.906;2023-04-03T15:25:15;2.33;;;1.60;;
5939;SDS011;2995;-31.998;115.906;2023-04-03T15:27:46;3.30;;;1.50;;
5939;SDS011;2995;-31.998;115.906;2023-04-03T15:30:18;3.07;;;1.23;;
5939;SDS011;2995;-31.998;115.906;2023-04-03T15:32:52;3.80;;;1.67;;
5939;SDS011;2995;-31.998;115.906;2023-04-03T15:35:23;1.50;;;1.13;;
5939;SDS011;2995;-31.998;115.906;2023-04-03T15:37:54;3.60;;;1.17;;
5939;SDS011;2995;-31.998;115.906;2023-04-03T15:40:26;2.67;;;1.40;;
5939;SDS011;2995;-31.998;115.906;2023-04-03T15:42:57;1.57;;;1.10;;